Paris, Missouri
Current Conditions -  °F | °C
As of 8:54 PM on Sunday 23 Nov 2014 (Local Time) from KCOU Reporting Station
Haze Haze  
Wind Chill: 53°   Ceiling: 300
Heat Index: 53°   Visibility: 4mi
Dew Point: 53°   Wind: 6mph
Humidity: 100%   Direction: 260°W
Pressure: 29.26"   Gusts: NA
Location:  39.48°N, 92°W
Report Text: KCOU 240254Z 26005KT 4SM BR OVC003 12/12 A2926 RMK AO2 SLP907 T01170117 58006 $
Loading
Personal Weather Stations






























Interactive Weather Map New forecast layout! Learn more

10-Day Weather Forecast

Advertisements
Track Severe Weather on mobile